TimeCDT,TemperatureF,Dew PointF,Humidity,Sea Level PressureIn,VisibilityMPH,Wind Direction,Wind SpeedMPH,Gust SpeedMPH,PrecipitationIn,Events,Conditions,WindDirDegrees,DateUTC
12:15 AM,73.4,66.2,78,30.00,10.0,SSE,11.5,-,N/A,,Unknown,150,2013-08-24 05:15:00
12:35 AM,73.4,66.2,78,30.00,10.0,SSE,11.5,-,N/A,,Unknown,150,2013-08-24 05:35:00
12:55 AM,71.6,66.2,83,30.00,10.0,SSE,9.2,-,N/A,,Unknown,150,2013-08-24 05:55:00
1:15 AM,73.4,66.2,78,30.00,10.0,SSE,9.2,-,N/A,,Unknown,150,2013-08-24 06:15:00
1:35 AM,73.4,66.2,78,30.00,10.0,SSE,8.1,-,N/A,,Unknown,150,2013-08-24 06:35:00
1:55 AM,71.6,66.2,83,30.00,10.0,SSE,9.2,-,N/A,,Unknown,150,2013-08-24 06:55:00
2:15 AM,71.6,66.2,83,30.01,10.0,Calm,Calm,-,N/A,,Unknown,0,2013-08-24 07:15:00
2:35 AM,71.6,66.2,83,30.01,7.0,Calm,Calm,-,N/A,,Unknown,0,2013-08-24 07:35:00
2:55 AM,71.6,66.2,83,30.01,7.0,Calm,Calm,-,N/A,,Unknown,0,2013-08-24 07:55:00
3:15 AM,71.6,66.2,83,30.01,7.0,Calm,Calm,-,N/A,,Unknown,0,2013-08-24 08:15:00
3:35 AM,71.6,66.2,83,30.01,10.0,South,4.6,-,N/A,,Unknown,170,2013-08-24 08:35:00
3:55 AM,71.6,66.2,83,30.00,10.0,South,5.8,-,N/A,,Light Drizzle,180,2013-08-24 08:55:00
4:15 AM,71.6,66.2,83,30.02,7.0,Calm,Calm,-,N/A,Rain,Light Rain,0,2013-08-24 09:15:00
4:35 AM,71.6,66.2,83,30.04,5.0,Calm,Calm,-,N/A,Rain,Rain,0,2013-08-24 09:35:00
4:55 AM,71.6,66.2,83,30.04,5.0,Calm,Calm,-,N/A,Rain,Light Rain,0,2013-08-24 09:55:00
5:15 AM,71.6,66.2,83,30.03,7.0,SSE,5.8,-,0.06,Rain,Light Rain,150,2013-08-24 10:15:00
5:35 AM,71.6,66.2,83,30.03,7.0,SSE,3.5,-,0.06,Rain,Rain,150,2013-08-24 10:35:00
5:55 AM,71.6,66.2,83,30.03,7.0,South,3.5,-,0.06,Rain,Rain,180,2013-08-24 10:55:00
6:15 AM,71.6,66.2,83,30.05,4.0,Calm,Calm,-,0.02,Rain,Rain,0,2013-08-24 11:15:00
6:35 AM,71.6,68.0,88,30.05,4.0,East,3.5,-,0.05,Rain,Rain,80,2013-08-24 11:35:00
6:55 AM,71.6,66.2,83,30.05,5.0,ESE,4.6,-,0.08,Rain,Rain,120,2013-08-24 11:55:00
7:15 AM,71.6,68.0,88,30.06,10.0,East,6.9,-,0.01,,Unknown,90,2013-08-24 12:15:00
7:35 AM,71.6,66.2,83,30.06,7.0,ESE,3.5,-,0.01,,Unknown,120,2013-08-24 12:35:00
7:55 AM,71.6,68.0,88,30.06,10.0,SE,5.8,-,0.03,Rain,Light Rain,140,2013-08-24 12:55:00
8:15 AM,71.6,68.0,88,30.06,7.0,SE,9.2,-,0.01,Rain,Light Rain,140,2013-08-24 13:15:00
8:35 AM,71.6,68.0,88,30.05,7.0,SE,9.2,-,0.02,,Drizzle,130,2013-08-24 13:35:00
8:55 AM,71.6,68.0,88,30.07,5.0,South,3.5,-,0.03,Rain,Rain,190,2013-08-24 13:55:00
9:15 AM,71.6,68.0,88,30.06,0.8,SE,13.8,17.3,0.35,Rain,Heavy Rain,130,2013-08-24 14:15:00
9:35 AM,71.6,68.0,88,30.03,7.0,SSE,12.7,19.6,0.46,Rain,Light Rain,150,2013-08-24 14:35:00
9:55 AM,71.6,68.0,88,30.02,7.0,SE,9.2,18.4,0.46,,Unknown,140,2013-08-24 14:55:00
10:15 AM,71.6,68.0,88,30.02,7.0,South,10.4,-,N/A,Rain,Light Rain,170,2013-08-24 15:15:00
10:35 AM,73.4,68.0,83,30.02,10.0,South,10.4,-,N/A,,Unknown,180,2013-08-24 15:35:00
10:55 AM,73.4,68.0,83,30.03,10.0,South,9.2,-,N/A,,Unknown,180,2013-08-24 15:55:00
11:15 AM,73.4,68.0,83,30.02,10.0,SSE,8.1,-,N/A,,Unknown,160,2013-08-24 16:15:00
11:35 AM,73.4,68.0,83,30.02,10.0,South,11.5,16.1,N/A,,Unknown,170,2013-08-24 16:35:00
11:55 AM,75.2,69.8,83,30.01,10.0,South,8.1,-,N/A,,Unknown,180,2013-08-24 16:55:00
12:15 PM,78.8,69.8,74,30.00,10.0,South,15.0,19.6,N/A,,Unknown,180,2013-08-24 17:15:00
12:35 PM,80.6,71.6,74,30.00,10.0,South,13.8,19.6,N/A,,Unknown,180,2013-08-24 17:35:00
12:55 PM,80.6,69.8,70,29.99,10.0,South,16.1,24.2,N/A,,Unknown,180,2013-08-24 17:55:00
1:15 PM,82.4,71.6,70,29.98,10.0,South,19.6,24.2,N/A,,Unknown,180,2013-08-24 18:15:00
1:35 PM,82.4,71.6,70,29.98,10.0,South,16.1,25.3,N/A,,Unknown,180,2013-08-24 18:35:00
1:55 PM,84.2,71.6,66,29.98,10.0,South,19.6,26.5,N/A,,Unknown,190,2013-08-24 18:55:00
2:15 PM,84.2,71.6,66,29.98,10.0,South,18.4,26.5,N/A,,Unknown,190,2013-08-24 19:15:00
2:35 PM,84.2,71.6,66,29.97,10.0,South,18.4,27.6,N/A,,Unknown,180,2013-08-24 19:35:00
2:55 PM,84.2,73.4,70,29.97,10.0,South,17.3,24.2,N/A,,Unknown,190,2013-08-24 19:55:00
3:15 PM,86.0,71.6,62,29.96,10.0,SSW,18.4,26.5,N/A,,Unknown,200,2013-08-24 20:15:00
3:35 PM,86.0,71.6,62,29.96,10.0,SSW,20.7,25.3,N/A,,Unknown,200,2013-08-24 20:35:00
3:55 PM,86.0,71.6,62,29.96,10.0,South,15.0,26.5,N/A,,Unknown,190,2013-08-24 20:55:00
4:15 PM,86.0,73.4,66,29.95,10.0,South,18.4,24.2,N/A,,Unknown,190,2013-08-24 21:15:00
4:35 PM,87.8,73.4,62,29.96,10.0,South,17.3,23.0,N/A,,Unknown,180,2013-08-24 21:35:00
4:55 PM,87.8,73.4,62,29.96,10.0,South,17.3,26.5,N/A,,Unknown,190,2013-08-24 21:55:00
5:15 PM,87.8,73.4,62,29.96,10.0,South,12.7,21.9,N/A,,Unknown,190,2013-08-24 22:15:00
5:35 PM,87.8,73.4,62,29.96,10.0,South,15.0,21.9,N/A,,Unknown,180,2013-08-24 22:35:00
5:55 PM,86.0,73.4,66,29.96,10.0,South,13.8,21.9,N/A,,Unknown,190,2013-08-24 22:55:00
6:15 PM,86.0,73.4,66,29.96,10.0,South,13.8,17.3,N/A,,Unknown,190,2013-08-24 23:15:00
6:35 PM,84.2,73.4,70,29.96,10.0,South,12.7,18.4,N/A,,Unknown,180,2013-08-24 23:35:00
6:55 PM,84.2,73.4,70,29.96,10.0,South,10.4,-,N/A,,Unknown,180,2013-08-24 23:55:00
7:15 PM,84.2,71.6,66,29.96,10.0,South,12.7,18.4,N/A,,Unknown,180,2013-08-25 00:15:00
7:35 PM,82.4,71.6,70,29.95,10.0,South,13.8,18.4,N/A,,Unknown,170,2013-08-25 00:35:00
7:55 PM,82.4,71.6,70,29.95,10.0,South,12.7,-,N/A,,Unknown,180,2013-08-25 00:55:00
8:15 PM,82.4,71.6,70,29.95,10.0,South,13.8,18.4,N/A,,Unknown,180,2013-08-25 01:15:00
8:35 PM,80.6,71.6,74,29.96,10.0,South,13.8,-,N/A,,Unknown,180,2013-08-25 01:35:00
8:55 PM,80.6,71.6,74,29.97,10.0,South,12.7,18.4,N/A,,Unknown,170,2013-08-25 01:55:00
9:15 PM,80.6,71.6,74,29.98,10.0,South,11.5,18.4,N/A,,Unknown,170,2013-08-25 02:15:00
9:35 PM,80.6,71.6,74,29.98,10.0,South,13.8,18.4,N/A,,Unknown,170,2013-08-25 02:35:00
9:55 PM,78.8,71.6,78,29.99,10.0,South,11.5,18.4,N/A,,Unknown,180,2013-08-25 02:55:00
10:15 PM,78.8,69.8,74,29.99,10.0,South,15.0,20.7,N/A,,Unknown,180,2013-08-25 03:15:00
10:35 PM,80.6,69.8,70,29.99,10.0,South,13.8,20.7,N/A,,Unknown,180,2013-08-25 03:35:00
10:55 PM,78.8,69.8,74,29.99,10.0,South,15.0,18.4,N/A,,Unknown,180,2013-08-25 03:55:00
11:15 PM,78.8,69.8,74,29.99,10.0,South,15.0,20.7,N/A,,Unknown,190,2013-08-25 04:15:00
11:35 PM,78.8,69.8,74,30.00,10.0,South,12.7,19.6,N/A,,Unknown,190,2013-08-25 04:35:00
11:55 PM,78.8,69.8,74,30.00,10.0,SSW,15.0,18.4,N/A,,Unknown,200,2013-08-25 04:55:00